sensor_id;sensor_type;location;lat;lon;timestamp;temperature;humidity
71142;DHT22;58808;59.366;17.970;2023-04-25T00:01:02;4.50;99.90
71142;DHT22;58808;59.366;17.970;2023-04-25T00:03:29;4.50;99.90
71142;DHT22;58808;59.366;17.970;2023-04-25T00:05:55;4.50;99.90
71142;DHT22;58808;59.366;17.970;2023-04-25T00:08:22;4.50;99.90
71142;DHT22;58808;59.366;17.970;2023-04-25T00:10:48;4.50;99.90
71142;DHT22;58808;59.366;17.970;2023-04-25T00:13:14;4.50;99.90
71142;DHT22;58808;59.366;17.970;2023-04-25T00:15:40;4.50;99.90
71142;DHT22;58808;59.366;17.970;2023-04-25T00:18:07;4.40;99.90
71142;DHT22;58808;59.366;17.970;2023-04-25T00:20:33;4.50;99.90
71142;DHT22;58808;59.366;17.970;2023-04-25T00:22:58;4.50;99.90
71142;DHT22;58808;59.366;17.970;2023-04-25T00:25:27;4.40;99.90
71142;DHT22;58808;59.366;17.970;2023-04-25T00:27:53;4.40;99.90
71142;DHT22;58808;59.366;17.970;2023-04-25T00:30:18;4.40;99.90
71142;DHT22;58808;59.366;17.970;2023-04-25T00:32:44;4.40;99.90
71142;DHT22;58808;59.366;17.970;2023-04-25T00:35:11;4.40;99.90
71142;DHT22;58808;59.366;17.970;2023-04-25T00:37:37;4.40;99.90
71142;DHT22;58808;59.366;17.970;2023-04-25T00:40:05;4.40;99.90
71142;DHT22;58808;59.366;17.970;2023-04-25T00:42:31;4.40;99.90
71142;DHT22;58808;59.366;17.970;2023-04-25T00:44:59;4.40;99.90
71142;DHT22;58808;59.366;17.970;2023-04-25T00:47:25;4.30;99.90
71142;DHT22;58808;59.366;17.970;2023-04-25T00:49:51;4.30;99.90
71142;DHT22;58808;59.366;17.970;2023-04-25T00:52:19;4.30;99.90
71142;DHT22;58808;59.366;17.970;2023-04-25T00:54:45;4.30;99.90
71142;DHT22;58808;59.366;17.970;2023-04-25T00:57:11;4.30;99.90
71142;DHT22;58808;59.366;17.970;2023-04-25T00:59:37;4.30;99.90
71142;DHT22;58808;59.366;17.970;2023-04-25T01:02:04;4.20;99.90
71142;DHT22;58808;59.366;17.970;2023-04-25T01:04:30;4.20;99.90
71142;DHT22;58808;59.366;17.970;2023-04-25T01:06:56;4.20;99.90
71142;DHT22;58808;59.366;17.970;2023-04-25T01:09:23;4.20;99.90
71142;DHT22;58808;59.366;17.970;2023-04-25T01:11:49;4.20;99.90
71142;DHT22;58808;59.366;17.970;2023-04-25T01:14:16;4.20;99.90
71142;DHT22;58808;59.366;17.970;2023-04-25T01:16:42;4.20;99.90
71142;DHT22;58808;59.366;17.970;2023-04-25T01:19:09;4.20;99.90
71142;DHT22;58808;59.366;17.970;2023-04-25T01:21:38;4.20;99.90
71142;DHT22;58808;59.366;17.970;2023-04-25T01:24:05;4.10;99.90
71142;DHT22;58808;59.366;17.970;2023-04-25T01:26:31;4.10;99.90
71142;DHT22;58808;59.366;17.970;2023-04-25T01:28:58;4.00;99.90
71142;DHT22;58808;59.366;17.970;2023-04-25T01:31:24;4.00;99.90
71142;DHT22;58808;59.366;17.970;2023-04-25T01:33:50;4.00;99.90
71142;DHT22;58808;59.366;17.970;2023-04-25T01:36:17;4.00;99.90
71142;DHT22;58808;59.366;17.970;2023-04-25T01:38:43;4.00;99.90
71142;DHT22;58808;59.366;17.970;2023-04-25T01:41:09;4.00;99.90
71142;DHT22;58808;59.366;17.970;2023-04-25T01:43:35;4.00;99.90
71142;DHT22;58808;59.366;17.970;2023-04-25T01:46:01;4.00;99.90
71142;DHT22;58808;59.366;17.970;2023-04-25T01:48:27;3.90;99.90
71142;DHT22;58808;59.366;17.970;2023-04-25T01:50:52;3.90;99.90
71142;DHT22;58808;59.366;17.970;2023-04-25T01:53:18;3.90;99.90
71142;DHT22;58808;59.366;17.970;2023-04-25T01:55:44;3.90;99.90
71142;DHT22;58808;59.366;17.970;2023-04-25T01:58:10;3.90;99.90
71142;DHT22;58808;59.366;17.970;2023-04-25T02:00:38;3.80;99.90
71142;DHT22;58808;59.366;17.970;2023-04-25T02:03:05;3.90;99.90
71142;DHT22;58808;59.366;17.970;2023-04-25T02:05:38;3.80;99.90
71142;DHT22;58808;59.366;17.970;2023-04-25T02:08:09;3.80;99.90
71142;DHT22;58808;59.366;17.970;2023-04-25T02:10:36;3.80;99.90
71142;DHT22;58808;59.366;17.970;2023-04-25T02:13:02;3.80;99.90
71142;DHT22;58808;59.366;17.970;2023-04-25T02:15:28;3.70;99.90
71142;DHT22;58808;59.366;17.970;2023-04-25T02:17:53;3.70;99.90
71142;DHT22;58808;59.366;17.970;2023-04-25T02:20:21;3.60;99.90
71142;DHT22;58808;59.366;17.970;2023-04-25T02:22:47;3.60;99.90
71142;DHT22;58808;59.366;17.970;2023-04-25T02:25:13;3.60;99.90
71142;DHT22;58808;59.366;17.970;2023-04-25T02:27:39;3.70;99.90
71142;DHT22;58808;59.366;17.970;2023-04-25T02:30:05;3.70;99.90
71142;DHT22;58808;59.366;17.970;2023-04-25T02:32:32;3.60;99.90
71142;DHT22;58808;59.366;17.970;2023-04-25T02:35:00;3.60;99.90
71142;DHT22;58808;59.366;17.970;2023-04-25T02:37:30;3.70;99.90
71142;DHT22;58808;59.366;17.970;2023-04-25T02:39:56;3.70;99.90
71142;DHT22;58808;59.366;17.970;2023-04-25T02:42:21;3.60;99.90
71142;DHT22;58808;59.366;17.970;2023-04-25T02:44:47;3.60;99.90
71142;DHT22;58808;59.366;17.970;2023-04-25T02:47:16;3.60;99.90
71142;DHT22;58808;59.366;17.970;2023-04-25T02:49:41;3.60;99.90
71142;DHT22;58808;59.366;17.970;2023-04-25T02:52:07;3.60;99.90
71142;DHT22;58808;59.366;17.970;2023-04-25T02:54:33;3.60;99.90
71142;DHT22;58808;59.366;17.970;2023-04-25T02:56:58;3.60;99.90
71142;DHT22;58808;59.366;17.970;2023-04-25T02:59:24;3.50;99.90
71142;DHT22;58808;59.366;17.970;2023-04-25T03:01:50;3.60;99.90
71142;DHT22;58808;59.366;17.970;2023-04-25T03:04:16;3.60;99.90
71142;DHT22;58808;59.366;17.970;2023-04-25T03:06:41;3.60;99.90
71142;DHT22;58808;59.366;17.970;2023-04-25T03:09:10;3.60;99.90
71142;DHT22;58808;59.366;17.970;2023-04-25T03:11:38;3.60;99.90
71142;DHT22;58808;59.366;17.970;2023-04-25T03:14:04;3.50;99.90
71142;DHT22;58808;59.366;17.970;2023-04-25T03:16:29;3.50;99.90
71142;DHT22;58808;59.366;17.970;2023-04-25T03:18:56;3.50;99.90
71142;DHT22;58808;59.366;17.970;2023-04-25T03:21:22;3.50;99.90
71142;DHT22;58808;59.366;17.970;2023-04-25T03:23:48;3.50;99.90
71142;DHT22;58808;59.366;17.970;2023-04-25T03:26:14;3.50;99.90
71142;DHT22;58808;59.366;17.970;2023-04-25T03:28:39;3.50;99.90
71142;DHT22;58808;59.366;17.970;2023-04-25T03:31:05;3.50;99.90
71142;DHT22;58808;59.366;17.970;2023-04-25T03:33:31;3.50;99.90
71142;DHT22;58808;59.366;17.970;2023-04-25T03:35:57;3.50;99.90
71142;DHT22;58808;59.366;17.970;2023-04-25T03:38:23;3.50;99.90
71142;DHT22;58808;59.366;17.970;2023-04-25T03:40:49;3.50;99.90
71142;DHT22;58808;59.366;17.970;2023-04-25T03:43:16;3.50;99.90
71142;DHT22;58808;59.366;17.970;2023-04-25T03:45:42;3.50;99.90
71142;DHT22;58808;59.366;17.970;2023-04-25T03:48:07;3.50;99.90
71142;DHT22;58808;59.366;17.970;2023-04-25T03:50:33;3.50;99.90
71142;DHT22;58808;59.366;17.970;2023-04-25T03:52:59;3.50;99.90
71142;DHT22;58808;59.366;17.970;2023-04-25T03:55:24;3.50;99.90
71142;DHT22;58808;59.366;17.970;2023-04-25T03:57:50;3.50;99.90
71142;DHT22;58808;59.366;17.970;2023-04-25T04:00:16;3.50;99.90
71142;DHT22;58808;59.366;17.970;2023-04-25T04:02:42;3.40;99.90
71142;DHT22;58808;59.366;17.970;2023-04-25T04:05:07;3.50;99.90
71142;DHT22;58808;59.366;17.970;2023-04-25T04:07:33;3.50;99.90
71142;DHT22;58808;59.366;17.970;2023-04-25T04:10:08;3.50;99.90
71142;DHT22;58808;59.366;17.970;2023-04-25T04:12:34;3.50;99.90
71142;DHT22;58808;59.366;17.970;2023-04-25T04:15:01;3.50;99.90
71142;DHT22;58808;59.366;17.970;2023-04-25T04:17:29;3.50;99.90
71142;DHT22;58808;59.366;17.970;2023-04-25T04:19:55;3.50;99.90
71142;DHT22;58808;59.366;17.970;2023-04-25T04:22:21;3.40;99.90
71142;DHT22;58808;59.366;17.970;2023-04-25T04:24:47;3.50;99.90
71142;DHT22;58808;59.366;17.970;2023-04-25T04:27:13;3.50;99.90
71142;DHT22;58808;59.366;17.970;2023-04-25T04:29:39;3.50;99.90
71142;DHT22;58808;59.366;17.970;2023-04-25T04:32:04;3.50;99.90
71142;DHT22;58808;59.366;17.970;2023-04-25T04:34:30;3.50;99.90
71142;DHT22;58808;59.366;17.970;2023-04-25T04:36:57;3.50;99.90
71142;DHT22;58808;59.366;17.970;2023-04-25T04:39:23;3.50;99.90
71142;DHT22;58808;59.366;17.970;2023-04-25T04:41:48;3.50;99.90
71142;DHT22;58808;59.366;17.970;2023-04-25T04:44:14;3.50;99.90
71142;DHT22;58808;59.366;17.970;2023-04-25T04:46:40;3.50;99.90
71142;DHT22;58808;59.366;17.970;2023-04-25T04:49:10;3.50;99.90
71142;DHT22;58808;59.366;17.970;2023-04-25T04:51:37;3.50;99.90
71142;DHT22;58808;59.366;17.970;2023-04-25T04:54:03;3.50;99.90
71142;DHT22;58808;59.366;17.970;2023-04-25T04:56:29;3.50;99.90
71142;DHT22;58808;59.366;17.970;2023-04-25T04:58:59;3.50;99.90
71142;DHT22;58808;59.366;17.970;2023-04-25T05:01:26;3.60;99.90
71142;DHT22;58808;59.366;17.970;2023-04-25T05:03:52;3.60;99.90
71142;DHT22;58808;59.366;17.970;2023-04-25T05:06:18;3.60;99.90
71142;DHT22;58808;59.366;17.970;2023-04-25T05:08:44;3.60;99.90
71142;DHT22;58808;59.366;17.970;2023-04-25T05:11:10;3.70;99.90
71142;DHT22;58808;59.366;17.970;2023-04-25T05:13:36;3.60;99.90
71142;DHT22;58808;59.366;17.970;2023-04-25T05:16:02;3.70;99.90
71142;DHT22;58808;59.366;17.970;2023-04-25T05:18:29;3.60;99.90
71142;DHT22;58808;59.366;17.970;2023-04-25T05:20:55;3.60;99.90
71142;DHT22;58808;59.366;17.970;2023-04-25T05:23:21;3.70;99.90
71142;DHT22;58808;59.366;17.970;2023-04-25T05:25:46;3.70;99.90
71142;DHT22;58808;59.366;17.970;2023-04-25T05:28:13;3.70;99.90
71142;DHT22;58808;59.366;17.970;2023-04-25T05:30:39;3.70;99.90
71142;DHT22;58808;59.366;17.970;2023-04-25T05:33:05;3.70;99.90
71142;DHT22;58808;59.366;17.970;2023-04-25T05:35:30;3.70;99.90
71142;DHT22;58808;59.366;17.970;2023-04-25T05:37:56;3.80;99.90
71142;DHT22;58808;59.366;17.970;2023-04-25T05:40:22;3.80;99.90
71142;DHT22;58808;59.366;17.970;2023-04-25T05:42:48;3.80;99.90
71142;DHT22;58808;59.366;17.970;2023-04-25T05:45:14;3.80;99.90
71142;DHT22;58808;59.366;17.970;2023-04-25T05:47:39;3.80;99.90
71142;DHT22;58808;59.366;17.970;2023-04-25T05:50:06;3.80;99.90
71142;DHT22;58808;59.366;17.970;2023-04-25T05:52:32;3.80;99.90
71142;DHT22;58808;59.366;17.970;2023-04-25T05:54:57;3.80;99.90
71142;DHT22;58808;59.366;17.970;2023-04-25T05:57:24;3.80;99.90
71142;DHT22;58808;59.366;17.970;2023-04-25T05:59:51;3.80;99.90
71142;DHT22;58808;59.366;17.970;2023-04-25T06:02:18;3.90;99.90
71142;DHT22;58808;59.366;17.970;2023-04-25T06:04:44;3.90;99.90
71142;DHT22;58808;59.366;17.970;2023-04-25T06:07:09;3.90;99.90
71142;DHT22;58808;59.366;17.970;2023-04-25T06:09:35;3.90;99.90
71142;DHT22;58808;59.366;17.970;2023-04-25T06:12:01;3.90;99.90
71142;DHT22;58808;59.366;17.970;2023-04-25T06:14:27;3.90;99.90
71142;DHT22;58808;59.366;17.970;2023-04-25T06:16:53;4.00;99.90
71142;DHT22;58808;59.366;17.970;2023-04-25T06:19:18;3.90;99.90
71142;DHT22;58808;59.366;17.970;2023-04-25T06:21:44;4.00;99.90
71142;DHT22;58808;59.366;17.970;2023-04-25T06:24:10;4.00;99.90
71142;DHT22;58808;59.366;17.970;2023-04-25T06:26:36;4.10;99.90
71142;DHT22;58808;59.366;17.970;2023-04-25T06:29:02;4.00;99.90
71142;DHT22;58808;59.366;17.970;2023-04-25T06:31:27;4.00;99.90
71142;DHT22;58808;59.366;17.970;2023-04-25T06:33:54;4.00;99.90
71142;DHT22;58808;59.366;17.970;2023-04-25T06:36:20;4.00;99.90
71142;DHT22;58808;59.366;17.970;2023-04-25T06:38:51;4.00;99.90
71142;DHT22;58808;59.366;17.970;2023-04-25T06:41:17;4.10;99.90
71142;DHT22;58808;59.366;17.970;2023-04-25T06:43:44;4.10;99.90
71142;DHT22;58808;59.366;17.970;2023-04-25T06:46:10;4.10;99.90
71142;DHT22;58808;59.366;17.970;2023-04-25T06:48:36;4.10;99.90
71142;DHT22;58808;59.366;17.970;2023-04-25T06:51:02;4.20;99.90
71142;DHT22;58808;59.366;17.970;2023-04-25T06:53:28;4.20;99.90
71142;DHT22;58808;59.366;17.970;2023-04-25T06:55:54;4.20;99.90
71142;DHT22;58808;59.366;17.970;2023-04-25T06:58:19;4.20;99.90
71142;DHT22;58808;59.366;17.970;2023-04-25T07:00:45;4.20;99.90
71142;DHT22;58808;59.366;17.970;2023-04-25T07:03:11;4.20;99.90
71142;DHT22;58808;59.366;17.970;2023-04-25T07:05:37;4.30;99.90
71142;DHT22;58808;59.366;17.970;2023-04-25T07:08:03;4.30;99.90
71142;DHT22;58808;59.366;17.970;2023-04-25T07:10:29;4.30;99.90
71142;DHT22;58808;59.366;17.970;2023-04-25T07:12:54;4.30;99.90
71142;DHT22;58808;59.366;17.970;2023-04-25T07:15:20;4.30;99.90
71142;DHT22;58808;59.366;17.970;2023-04-25T07:17:46;4.40;99.90
71142;DHT22;58808;59.366;17.970;2023-04-25T07:20:12;4.40;99.90
71142;DHT22;58808;59.366;17.970;2023-04-25T07:22:38;4.40;99.90
71142;DHT22;58808;59.366;17.970;2023-04-25T07:25:04;4.50;99.90
71142;DHT22;58808;59.366;17.970;2023-04-25T07:27:30;4.50;99.90
71142;DHT22;58808;59.366;17.970;2023-04-25T07:29:56;4.50;99.90
71142;DHT22;58808;59.366;17.970;2023-04-25T07:32:22;4.60;99.90
71142;DHT22;58808;59.366;17.970;2023-04-25T07:34:48;4.60;99.90
71142;DHT22;58808;59.366;17.970;2023-04-25T07:37:14;4.60;99.90
71142;DHT22;58808;59.366;17.970;2023-04-25T07:39:40;4.60;99.90
71142;DHT22;58808;59.366;17.970;2023-04-25T07:42:06;4.70;99.90
71142;DHT22;58808;59.366;17.970;2023-04-25T07:44:36;4.70;99.90
71142;DHT22;58808;59.366;17.970;2023-04-25T07:47:07;4.70;99.90
71142;DHT22;58808;59.366;17.970;2023-04-25T07:49:34;4.70;99.90
71142;DHT22;58808;59.366;17.970;2023-04-25T07:52:01;4.70;99.90
71142;DHT22;58808;59.366;17.970;2023-04-25T07:54:27;4.70;99.90
71142;DHT22;58808;59.366;17.970;2023-04-25T07:56:52;4.80;99.90
71142;DHT22;58808;59.366;17.970;2023-04-25T07:59:18;4.80;99.90
71142;DHT22;58808;59.366;17.970;2023-04-25T08:01:44;4.80;99.90
71142;DHT22;58808;59.366;17.970;2023-04-25T08:04:10;4.80;99.90
71142;DHT22;58808;59.366;17.970;2023-04-25T08:06:35;4.80;99.90
71142;DHT22;58808;59.366;17.970;2023-04-25T08:09:02;4.90;99.90
71142;DHT22;58808;59.366;17.970;2023-04-25T08:11:28;4.90;99.90
71142;DHT22;58808;59.366;17.970;2023-04-25T08:13:54;5.00;99.90
71142;DHT22;58808;59.366;17.970;2023-04-25T08:16:20;5.00;99.90
71142;DHT22;58808;59.366;17.970;2023-04-25T08:18:46;5.00;99.90
71142;DHT22;58808;59.366;17.970;2023-04-25T08:21:11;5.00;99.90
71142;DHT22;58808;59.366;17.970;2023-04-25T08:23:38;5.10;99.90
71142;DHT22;58808;59.366;17.970;2023-04-25T08:26:05;5.10;99.90
71142;DHT22;58808;59.366;17.970;2023-04-25T08:28:31;5.10;99.90
71142;DHT22;58808;59.366;17.970;2023-04-25T08:30:57;5.10;99.90
71142;DHT22;58808;59.366;17.970;2023-04-25T08:33:22;5.20;99.90
71142;DHT22;58808;59.366;17.970;2023-04-25T08:35:48;5.20;99.90
71142;DHT22;58808;59.366;17.970;2023-04-25T08:38:14;5.20;99.90
71142;DHT22;58808;59.366;17.970;2023-04-25T08:40:40;5.20;99.90
71142;DHT22;58808;59.366;17.970;2023-04-25T08:43:07;5.30;99.90
71142;DHT22;58808;59.366;17.970;2023-04-25T08:45:40;5.30;99.90
71142;DHT22;58808;59.366;17.970;2023-04-25T08:48:10;5.30;99.90
71142;DHT22;58808;59.366;17.970;2023-04-25T08:50:49;5.40;99.90
71142;DHT22;58808;59.366;17.970;2023-04-25T08:53:17;5.40;99.90
71142;DHT22;58808;59.366;17.970;2023-04-25T08:55:47;5.40;99.90
71142;DHT22;58808;59.366;17.970;2023-04-25T08:58:14;5.40;99.90
71142;DHT22;58808;59.366;17.970;2023-04-25T09:00:40;5.40;99.90
71142;DHT22;58808;59.366;17.970;2023-04-25T09:03:06;5.50;99.90
71142;DHT22;58808;59.366;17.970;2023-04-25T09:05:34;5.50;99.90
71142;DHT22;58808;59.366;17.970;2023-04-25T09:08:01;5.50;99.90
71142;DHT22;58808;59.366;17.970;2023-04-25T09:10:28;5.50;99.90
71142;DHT22;58808;59.366;17.970;2023-04-25T09:13:14;5.50;99.90
71142;DHT22;58808;59.366;17.970;2023-04-25T09:15:50;5.60;99.90
71142;DHT22;58808;59.366;17.970;2023-04-25T09:18:29;5.60;99.90
71142;DHT22;58808;59.366;17.970;2023-04-25T09:21:07;5.60;99.90
71142;DHT22;58808;59.366;17.970;2023-04-25T09:23:45;5.60;99.90
71142;DHT22;58808;59.366;17.970;2023-04-25T09:26:14;5.70;99.90
71142;DHT22;58808;59.366;17.970;2023-04-25T09:28:42;5.70;99.90
71142;DHT22;58808;59.366;17.970;2023-04-25T09:31:10;5.60;99.90
71142;DHT22;58808;59.366;17.970;2023-04-25T09:33:37;5.70;99.90
71142;DHT22;58808;59.366;17.970;2023-04-25T09:36:05;5.70;99.90
71142;DHT22;58808;59.366;17.970;2023-04-25T09:38:39;5.80;99.90
71142;DHT22;58808;59.366;17.970;2023-04-25T09:41:07;5.80;99.90
71142;DHT22;58808;59.366;17.970;2023-04-25T09:43:33;5.80;99.90
71142;DHT22;58808;59.366;17.970;2023-04-25T09:45:59;5.90;99.90
71142;DHT22;58808;59.366;17.970;2023-04-25T09:48:27;5.90;99.90
71142;DHT22;58808;59.366;17.970;2023-04-25T09:51:12;6.00;99.90
71142;DHT22;58808;59.366;17.970;2023-04-25T09:53:46;6.00;99.90
71142;DHT22;58808;59.366;17.970;2023-04-25T09:56:16;6.00;99.90
71142;DHT22;58808;59.366;17.970;2023-04-25T09:58:42;6.00;99.90
71142;DHT22;58808;59.366;17.970;2023-04-25T10:01:09;6.10;99.90
71142;DHT22;58808;59.366;17.970;2023-04-25T10:03:38;6.10;99.90
71142;DHT22;58808;59.366;17.970;2023-04-25T10:06:09;6.20;99.90
71142;DHT22;58808;59.366;17.970;2023-04-25T10:08:38;6.20;99.90
71142;DHT22;58808;59.366;17.970;2023-04-25T10:11:05;6.20;99.90
71142;DHT22;58808;59.366;17.970;2023-04-25T10:13:33;6.20;99.90
71142;DHT22;58808;59.366;17.970;2023-04-25T10:16:03;6.20;99.90
71142;DHT22;58808;59.366;17.970;2023-04-25T10:18:30;6.20;99.90
71142;DHT22;58808;59.366;17.970;2023-04-25T10:20:58;6.30;99.90
71142;DHT22;58808;59.366;17.970;2023-04-25T10:23:24;6.30;99.90
71142;DHT22;58808;59.366;17.970;2023-04-25T10:25:52;6.40;99.90
71142;DHT22;58808;59.366;17.970;2023-04-25T10:28:18;6.40;99.90
71142;DHT22;58808;59.366;17.970;2023-04-25T10:31:03;6.40;99.90
71142;DHT22;58808;59.366;17.970;2023-04-25T10:33:39;6.40;99.90
71142;DHT22;58808;59.366;17.970;2023-04-25T10:36:17;6.40;99.90
71142;DHT22;58808;59.366;17.970;2023-04-25T10:38:44;6.50;99.90
71142;DHT22;58808;59.366;17.970;2023-04-25T10:41:11;6.50;99.90
71142;DHT22;58808;59.366;17.970;2023-04-25T10:43:42;6.40;99.90
71142;DHT22;58808;59.366;17.970;2023-04-25T10:46:26;6.50;99.90
71142;DHT22;58808;59.366;17.970;2023-04-25T10:48:56;6.60;99.90
71142;DHT22;58808;59.366;17.970;2023-04-25T10:56:28;6.60;99.90
71142;DHT22;58808;59.366;17.970;2023-04-25T10:59:09;6.60;99.90
71142;DHT22;58808;59.366;17.970;2023-04-25T11:01:40;6.60;99.90
71142;DHT22;58808;59.366;17.970;2023-04-25T11:04:23;6.60;99.90
71142;DHT22;58808;59.366;17.970;2023-04-25T11:06:55;6.70;99.90
71142;DHT22;58808;59.366;17.970;2023-04-25T11:09:24;6.70;99.90
71142;DHT22;58808;59.366;17.970;2023-04-25T11:11:57;6.80;99.90
71142;DHT22;58808;59.366;17.970;2023-04-25T11:14:24;6.80;99.90
71142;DHT22;58808;59.366;17.970;2023-04-25T11:16:54;6.90;99.90
71142;DHT22;58808;59.366;17.970;2023-04-25T11:19:23;6.90;99.90
71142;DHT22;58808;59.366;17.970;2023-04-25T11:21:50;6.90;99.90
71142;DHT22;58808;59.366;17.970;2023-04-25T11:24:16;6.90;99.90
71142;DHT22;58808;59.366;17.970;2023-04-25T11:26:43;6.90;99.90
71142;DHT22;58808;59.366;17.970;2023-04-25T11:29:09;7.00;99.90
71142;DHT22;58808;59.366;17.970;2023-04-25T11:31:35;7.00;99.90
71142;DHT22;58808;59.366;17.970;2023-04-25T11:34:01;7.00;99.90
71142;DHT22;58808;59.366;17.970;2023-04-25T11:36:27;7.00;99.90
71142;DHT22;58808;59.366;17.970;2023-04-25T11:38:53;7.00;99.90
71142;DHT22;58808;59.366;17.970;2023-04-25T11:41:20;7.10;99.90
71142;DHT22;58808;59.366;17.970;2023-04-25T11:43:47;7.10;99.90
71142;DHT22;58808;59.366;17.970;2023-04-25T11:46:14;7.20;99.90
71142;DHT22;58808;59.366;17.970;2023-04-25T11:48:41;7.20;99.90
71142;DHT22;58808;59.366;17.970;2023-04-25T11:51:08;7.20;99.90
71142;DHT22;58808;59.366;17.970;2023-04-25T11:53:34;7.20;99.90
71142;DHT22;58808;59.366;17.970;2023-04-25T11:56:01;7.30;99.90
71142;DHT22;58808;59.366;17.970;2023-04-25T11:58:27;7.20;99.90
71142;DHT22;58808;59.366;17.970;2023-04-25T12:00:53;7.20;99.90
71142;DHT22;58808;59.366;17.970;2023-04-25T12:03:19;7.20;99.90
71142;DHT22;58808;59.366;17.970;2023-04-25T12:05:46;7.20;99.90
71142;DHT22;58808;59.366;17.970;2023-04-25T12:08:12;7.20;99.90
71142;DHT22;58808;59.366;17.970;2023-04-25T12:10:43;7.30;99.90
71142;DHT22;58808;59.366;17.970;2023-04-25T12:13:38;7.30;99.90
71142;DHT22;58808;59.366;17.970;2023-04-25T12:16:04;7.40;99.90
71142;DHT22;58808;59.366;17.970;2023-04-25T12:18:30;7.40;99.90
71142;DHT22;58808;59.366;17.970;2023-04-25T12:20:55;7.40;99.90
71142;DHT22;58808;59.366;17.970;2023-04-25T12:23:28;7.50;99.90
71142;DHT22;58808;59.366;17.970;2023-04-25T12:25:54;7.50;99.90
71142;DHT22;58808;59.366;17.970;2023-04-25T12:28:22;7.50;99.90
71142;DHT22;58808;59.366;17.970;2023-04-25T12:30:57;7.50;99.90
71142;DHT22;58808;59.366;17.970;2023-04-25T12:33:24;7.50;99.90
71142;DHT22;58808;59.366;17.970;2023-04-25T12:35:50;7.50;99.90
71142;DHT22;58808;59.366;17.970;2023-04-25T12:38:27;7.60;99.90
71142;DHT22;58808;59.366;17.970;2023-04-25T12:40:53;7.60;99.90
71142;DHT22;58808;59.366;17.970;2023-04-25T12:43:19;7.60;99.90
71142;DHT22;58808;59.366;17.970;2023-04-25T12:45:50;7.70;99.90
71142;DHT22;58808;59.366;17.970;2023-04-25T12:48:16;7.60;99.90
71142;DHT22;58808;59.366;17.970;2023-04-25T12:50:42;7.60;99.90
71142;DHT22;58808;59.366;17.970;2023-04-25T12:53:08;7.60;99.90
71142;DHT22;58808;59.366;17.970;2023-04-25T12:55:34;7.60;99.90
71142;DHT22;58808;59.366;17.970;2023-04-25T12:58:00;7.60;99.90
71142;DHT22;58808;59.366;17.970;2023-04-25T13:00:26;7.70;99.90
71142;DHT22;58808;59.366;17.970;2023-04-25T13:02:52;7.70;99.90
71142;DHT22;58808;59.366;17.970;2023-04-25T13:05:18;7.70;99.90
71142;DHT22;58808;59.366;17.970;2023-04-25T13:07:44;7.70;99.90
71142;DHT22;58808;59.366;17.970;2023-04-25T13:10:10;7.70;99.90
71142;DHT22;58808;59.366;17.970;2023-04-25T13:12:36;7.80;99.90
71142;DHT22;58808;59.366;17.970;2023-04-25T13:15:02;7.80;99.90
71142;DHT22;58808;59.366;17.970;2023-04-25T13:17:28;8.00;99.90
71142;DHT22;58808;59.366;17.970;2023-04-25T13:19:54;8.00;99.90
71142;DHT22;58808;59.366;17.970;2023-04-25T13:22:19;8.00;99.90
71142;DHT22;58808;59.366;17.970;2023-04-25T13:24:46;8.10;99.90
71142;DHT22;58808;59.366;17.970;2023-04-25T13:27:12;8.10;99.90
71142;DHT22;58808;59.366;17.970;2023-04-25T13:29:38;8.20;99.90
71142;DHT22;58808;59.366;17.970;2023-04-25T13:32:06;8.30;99.90
71142;DHT22;58808;59.366;17.970;2023-04-25T13:34:32;8.40;99.90
71142;DHT22;58808;59.366;17.970;2023-04-25T13:36:58;8.40;99.90
71142;DHT22;58808;59.366;17.970;2023-04-25T13:39:24;8.40;99.90
71142;DHT22;58808;59.366;17.970;2023-04-25T13:41:50;8.40;99.90
71142;DHT22;58808;59.366;17.970;2023-04-25T13:44:16;8.50;99.90
71142;DHT22;58808;59.366;17.970;2023-04-25T13:46:42;8.50;99.90
71142;DHT22;58808;59.366;17.970;2023-04-25T13:49:07;8.50;99.90
71142;DHT22;58808;59.366;17.970;2023-04-25T13:51:33;8.60;99.90
71142;DHT22;58808;59.366;17.970;2023-04-25T13:53:59;8.50;99.90
71142;DHT22;58808;59.366;17.970;2023-04-25T13:56:25;8.50;99.90
71142;DHT22;58808;59.366;17.970;2023-04-25T13:58:51;8.50;99.90
71142;DHT22;58808;59.366;17.970;2023-04-25T14:01:17;8.60;99.90
71142;DHT22;58808;59.366;17.970;2023-04-25T14:03:44;8.60;99.90
71142;DHT22;58808;59.366;17.970;2023-04-25T14:06:09;8.60;99.90
71142;DHT22;58808;59.366;17.970;2023-04-25T14:08:36;8.70;99.90
71142;DHT22;58808;59.366;17.970;2023-04-25T14:11:02;8.70;99.90
71142;DHT22;58808;59.366;17.970;2023-04-25T14:13:28;8.80;99.90
71142;DHT22;58808;59.366;17.970;2023-04-25T14:15:54;8.80;99.90
71142;DHT22;58808;59.366;17.970;2023-04-25T14:18:20;8.80;99.90
71142;DHT22;58808;59.366;17.970;2023-04-25T14:20:47;8.80;99.90
71142;DHT22;58808;59.366;17.970;2023-04-25T14:23:13;8.80;99.90
71142;DHT22;58808;59.366;17.970;2023-04-25T14:25:39;8.80;99.90
71142;DHT22;58808;59.366;17.970;2023-04-25T14:28:05;8.90;99.90
71142;DHT22;58808;59.366;17.970;2023-04-25T14:30:31;8.90;99.90
71142;DHT22;58808;59.366;17.970;2023-04-25T14:32:57;9.00;99.90
71142;DHT22;58808;59.366;17.970;2023-04-25T14:35:23;9.00;99.90
71142;DHT22;58808;59.366;17.970;2023-04-25T14:37:49;9.00;99.90
71142;DHT22;58808;59.366;17.970;2023-04-25T14:40:14;9.00;99.90
71142;DHT22;58808;59.366;17.970;2023-04-25T14:42:41;9.00;99.90
71142;DHT22;58808;59.366;17.970;2023-04-25T14:45:08;9.00;99.90
71142;DHT22;58808;59.366;17.970;2023-04-25T14:47:35;9.00;99.90
71142;DHT22;58808;59.366;17.970;2023-04-25T14:50:01;9.00;99.90
71142;DHT22;58808;59.366;17.970;2023-04-25T14:52:27;9.00;99.90
71142;DHT22;58808;59.366;17.970;2023-04-25T14:54:53;9.00;99.90
71142;DHT22;58808;59.366;17.970;2023-04-25T14:57:19;9.10;99.90
71142;DHT22;58808;59.366;17.970;2023-04-25T14:59:45;9.10;99.90
71142;DHT22;58808;59.366;17.970;2023-04-25T15:02:11;9.20;99.90
71142;DHT22;58808;59.366;17.970;2023-04-25T15:04:37;9.20;99.90
71142;DHT22;58808;59.366;17.970;2023-04-25T15:07:03;9.20;99.90
71142;DHT22;58808;59.366;17.970;2023-04-25T15:09:29;9.10;99.90
71142;DHT22;58808;59.366;17.970;2023-04-25T15:11:56;9.10;99.90
71142;DHT22;58808;59.366;17.970;2023-04-25T15:14:22;9.10;99.90
71142;DHT22;58808;59.366;17.970;2023-04-25T15:16:48;9.10;99.90
71142;DHT22;58808;59.366;17.970;2023-04-25T15:19:13;9.10;99.90
71142;DHT22;58808;59.366;17.970;2023-04-25T15:21:40;9.20;99.90
71142;DHT22;58808;59.366;17.970;2023-04-25T15:24:05;9.20;99.90
71142;DHT22;58808;59.366;17.970;2023-04-25T15:26:31;9.20;99.90
71142;DHT22;58808;59.366;17.970;2023-04-25T15:28:57;9.30;99.90
71142;DHT22;58808;59.366;17.970;2023-04-25T15:31:23;9.40;99.90
71142;DHT22;58808;59.366;17.970;2023-04-25T15:33:49;9.40;99.90